Time;durP1;ratioP1;P1;durP2;ratioP2;P2;SDS_P1;SDS_P2;PMS_P1;PMS_P2;Temp;Humidity;BMP_temperature;BMP_pressure;BME280_temperature;BME280_humidity;BME280_pressure;Samples;Min_cycle;Max_cycle;Signal;HPM_P1;HPM_P2
2022/09/03 00:03:01;;;;;;;6.20;4.60;;;;;;;12.47;99.84;97378.65;110071;1249;60507;-67
2022/09/03 00:06:00;;;;;;;7.50;4.60;;;;;;;12.47;100.00;97381.27;110025;1249;72236;-68
2022/09/03 00:08:39;;;;;;;8.10;4.90;;;;;;;12.47;100.00;97382.84;110308;1247;69265;-68
2022/09/03 00:11:20;;;;;;;4.80;4.30;;;;;;;12.48;99.94;97377.20;110061;1249;69550;-68
2022/09/03 00:14:10;;;;;;;4.30;3.60;;;;;;;12.49;99.52;97376.95;110118;1246;60489;-69
2022/09/03 00:16:55;;;;;;;5.10;4.40;;;;;;;12.49;99.18;97378.11;109886;1250;60501;-69
2022/09/03 00:19:34;;;;;;;5.50;4.50;;;;;;;12.50;98.92;97378.94;110749;1249;72160;-68
2022/09/03 00:22:12;;;;;;;6.20;4.30;;;;;;;12.49;99.76;97379.41;110273;1247;68823;-68
2022/09/03 00:24:42;;;;;;;4.70;4.00;;;;;;;12.48;100.00;97376.85;110054;1247;69500;-68
2022/09/03 00:27:17;;;;;;;6.60;4.60;;;;;;;12.49;99.71;97380.10;110168;1247;60425;-69
2022/09/03 00:29:51;;;;;;;4.80;3.60;;;;;;;12.50;99.52;97378.96;110175;1247;60555;-69
2022/09/03 00:32:46;;;;;;;4.60;3.90;;;;;;;12.52;99.75;97382.65;110161;1247;72364;-68
2022/09/03 00:35:42;;;;;;;4.70;3.90;;;;;;;12.54;100.00;97386.30;110400;1247;68661;-68
2022/09/03 00:38:11;;;;;;;5.00;4.20;;;;;;;12.55;99.92;97378.02;110030;1248;68504;-69
2022/09/03 00:41:15;;;;;;;4.90;4.20;;;;;;;12.56;99.75;97379.15;110098;1247;60510;-68
2022/09/03 00:44:13;;;;;;;6.00;3.90;;;;;;;12.55;99.36;97377.63;110105;1248;60437;-67
2022/09/03 00:46:51;;;;;;;6.30;4.40;;;;;;;12.55;98.75;97378.19;110298;1249;71403;-69
2022/09/03 00:49:36;;;;;;;5.50;4.00;;;;;;;12.55;99.28;97379.98;109976;1248;68654;-69
2022/09/03 00:52:43;;;;;;;5.50;3.90;;;;;;;12.56;99.90;97377.77;110174;1249;67560;-69
2022/09/03 00:55:40;;;;;;;5.20;4.60;;;;;;;12.57;100.00;97375.20;110036;1247;60509;-69
2022/09/03 00:58:20;;;;;;;4.60;3.90;;;;;;;12.57;100.00;97376.45;110004;1249;60504;-69
2022/09/03 01:00:51;;;;;;;5.60;4.00;;;;;;;12.58;100.00;97378.08;110073;1248;72372;-69
2022/09/03 01:03:41;;;;;;;;;;;;;;;12.61;100.00;97385.21;109952;1249;68612;-68
2022/09/03 01:06:38;;;;;;;5.00;4.00;;;;;;;12.62;100.00;97385.51;110083;1249;68717;-69
2022/09/03 01:09:11;;;;;;;4.70;3.50;;;;;;;12.63;100.00;97383.48;110100;1250;60481;-69
2022/09/03 01:12:00;;;;;;;4.80;3.60;;;;;;;12.64;100.00;97382.52;110064;1249;60427;-69
2022/09/03 01:14:48;;;;;;;6.10;3.70;;;;;;;12.65;100.00;97384.20;110108;1250;72366;-69
2022/09/03 01:17:37;;;;;;;4.60;3.70;;;;;;;12.65;100.00;97387.52;110064;1249;68687;-69
2022/09/03 01:20:29;;;;;;;6.70;4.80;;;;;;;12.64;100.00;97386.49;110184;1248;68977;-69
2022/09/03 01:23:34;;;;;;;5.80;4.00;;;;;;;12.64;100.00;97379.02;110088;1248;60481;-69
2022/09/03 01:26:32;;;;;;;5.70;3.90;;;;;;;12.66;100.00;97386.23;110934;1248;60490;-68
2022/09/03 01:29:24;;;;;;;5.60;4.30;;;;;;;12.68;100.00;97383.27;110225;1247;72225;-69
2022/09/03 01:32:10;;;;;;;6.60;4.10;;;;;;;12.70;100.00;97384.66;110094;1248;68337;-70
2022/09/03 01:35:02;;;;;;;4.80;4.20;;;;;;;12.70;100.00;97379.69;110147;1247;69396;-70
2022/09/03 01:38:01;;;;;;;5.10;4.50;;;;;;;12.71;100.00;97380.67;110135;1247;60560;-70
2022/09/03 01:42:12;;;;;;;5.60;4.30;;;;;;;12.71;100.00;97380.52;109852;1249;60440;-70
2022/09/03 01:44:15;;;;;;;5.20;4.30;;;;;;;12.72;100.00;97386.05;110362;1250;72306;-70
2022/09/03 01:46:49;;;;;;;5.80;4.10;;;;;;;12.74;100.00;97386.56;110040;1249;69231;-69
2022/09/03 01:49:35;;;;;;;5.30;4.00;;;;;;;12.75;100.00;97390.65;110074;1248;69540;-68
2022/09/03 01:52:17;;;;;;;4.80;3.40;;;;;;;12.77;100.00;97386.94;110034;1249;60519;-68
2022/09/03 01:54:59;;;;;;;4.80;3.60;;;;;;;12.79;100.00;97389.72;110150;1250;60495;-69
2022/09/03 01:57:44;;;;;;;5.00;4.10;;;;;;;12.79;100.00;97392.81;110217;1247;72342;-69
2022/09/03 02:00:19;;;;;;;4.60;4.10;;;;;;;12.79;100.00;97393.90;109956;1249;69416;-69
2022/09/03 02:02:50;;;;;;;4.20;3.40;;;;;;;12.80;100.00;97394.17;110200;1249;69253;-68
2022/09/03 02:05:25;;;;;;;5.90;3.80;;;;;;;12.81;100.00;97393.41;110110;1247;60488;-69
2022/09/03 02:08:09;;;;;;;4.80;3.70;;;;;;;12.81;100.00;97390.09;110127;1247;60557;-69
2022/09/03 02:10:52;;;;;;;4.90;4.40;;;;;;;12.81;100.00;97389.20;110030;1248;71542;-68
2022/09/03 02:13:27;;;;;;;5.10;3.70;;;;;;;12.82;100.00;97390.17;110037;1250;68649;-71
2022/09/03 02:16:04;;;;;;;6.20;3.90;;;;;;;12.82;100.00;97386.67;110227;1247;69511;-68
2022/09/03 02:18:45;;;;;;;4.80;3.70;;;;;;;12.82;100.00;97387.05;110030;1249;60512;-70
2022/09/03 02:21:23;;;;;;;6.10;3.40;;;;;;;12.81;100.00;97388.83;110124;1247;60485;-69
2022/09/03 02:23:54;;;;;;;5.20;3.40;;;;;;;12.81;100.00;97390.23;110128;1247;72371;-68
2022/09/03 02:26:25;;;;;;;6.60;4.20;;;;;;;12.80;100.00;97396.06;109727;1250;69360;-69
2022/09/03 02:28:57;;;;;;;4.80;3.50;;;;;;;12.78;100.00;97395.17;110018;1249;69671;-71
2022/09/03 02:31:27;;;;;;;5.00;3.60;;;;;;;12.77;100.00;97394.91;110918;1249;60531;-70
2022/09/03 02:34:00;;;;;;;5.90;3.70;;;;;;;12.77;100.00;97398.64;110187;1250;60494;-69
2022/09/03 02:36:35;;;;;;;4.70;3.80;;;;;;;12.74;100.00;97396.15;110142;1249;73066;-70
2022/09/03 02:39:06;;;;;;;4.70;3.70;;;;;;;12.75;100.00;97398.73;110118;1247;68298;-69
2022/09/03 02:41:40;;;;;;;4.70;3.10;;;;;;;12.75;100.00;97399.42;109977;1247;70102;-69
2022/09/03 02:44:30;;;;;;;4.60;3.50;;;;;;;12.75;100.00;97395.05;109796;1250;60563;-68
2022/09/03 02:47:04;;;;;;;6.60;3.90;;;;;;;12.75;100.00;97392.95;110130;1248;60571;-68
2022/09/03 02:49:33;;;;;;;4.50;3.30;;;;;;;12.75;100.00;97396.10;110046;1248;70396;-69
2022/09/03 02:52:11;;;;;;;5.00;3.20;;;;;;;12.75;100.00;97403.96;109983;1249;69164;-69
2022/09/03 02:54:43;;;;;;;4.50;3.40;;;;;;;12.74;100.00;97399.55;110067;1248;68629;-68
2022/09/03 02:57:15;;;;;;;5.00;3.40;;;;;;;12.73;100.00;97400.70;110022;1249;60487;-69
2022/09/03 02:59:55;;;;;;;4.70;3.50;;;;;;;12.72;100.00;97401.23;110196;1249;60405;-69
2022/09/03 03:02:25;;;;;;;4.70;3.30;;;;;;;12.72;100.00;97399.35;110043;1249;71556;-69
2022/09/03 03:04:56;;;;;;;5.30;3.70;;;;;;;12.71;100.00;97400.33;110203;1247;69464;-68
2022/09/03 03:07:31;;;;;;;4.20;3.30;;;;;;;12.70;100.00;97399.87;109815;1250;68689;-69
2022/09/03 03:10:00;;;;;;;4.50;3.70;;;;;;;12.70;100.00;97399.48;110115;1247;60535;-69
2022/09/03 03:12:30;;;;;;;4.40;3.50;;;;;;;12.70;100.00;97399.51;110242;1247;60530;-70
2022/09/03 03:15:00;;;;;;;4.40;3.10;;;;;;;12.69;100.00;97403.61;110365;1246;71561;-69
2022/09/03 03:17:30;;;;;;;;;;;;;;;12.70;100.00;97413.15;109951;1248;68674;-69
2022/09/03 03:20:01;;;;;;;4.10;3.10;;;;;;;12.69;100.00;97416.16;110026;1248;69362;-68
2022/09/03 03:22:34;;;;;;;4.50;3.90;;;;;;;12.70;100.00;97413.80;110121;1248;60530;-69
2022/09/03 03:25:04;;;;;;;4.40;3.70;;;;;;;12.72;100.00;97413.17;110092;1249;60506;-69
2022/09/03 03:27:34;;;;;;;5.60;3.80;;;;;;;12.73;100.00;97411.89;110106;1249;72391;-69
2022/09/03 03:30:08;;;;;;;5.10;3.80;;;;;;;12.72;100.00;97412.11;110226;1249;68601;-69
2022/09/03 03:32:38;;;;;;;5.10;3.70;;;;;;;12.72;100.00;97408.41;110169;1249;69436;-68
2022/09/03 03:35:08;;;;;;;;;;;;;;;12.73;100.00;97408.69;110252;1249;60588;-72
2022/09/03 03:37:37;;;;;;;4.10;3.40;;;;;;;12.73;100.00;97408.68;110907;1248;60443;-69
2022/09/03 03:40:09;;;;;;;4.60;4.00;;;;;;;12.74;100.00;97406.34;110281;1248;72169;-70
2022/09/03 03:42:38;;;;;;;5.30;3.70;;;;;;;12.74;100.00;97403.66;110245;1249;68456;-68
2022/09/03 03:45:09;;;;;;;5.00;3.30;;;;;;;12.75;100.00;97408.49;109989;1249;69609;-69
2022/09/03 03:47:38;;;;;;;5.20;3.40;;;;;;;12.76;100.00;97402.50;110046;1248;60962;-68
2022/09/03 03:50:07;;;;;;;5.00;3.40;;;;;;;12.77;100.00;97409.25;110078;1249;60430;-69
2022/09/03 03:52:37;;;;;;;4.10;3.30;;;;;;;12.76;100.00;97410.56;109698;1250;71424;-69
2022/09/03 03:55:06;;;;;;;5.20;3.80;;;;;;;12.74;100.00;97411.19;110124;1248;68640;-69
2022/09/03 03:57:36;;;;;;;3.70;3.10;;;;;;;12.73;100.00;97407.44;109983;1248;67860;-69
2022/09/03 04:00:06;;;;;;;4.20;2.80;;;;;;;12.73;100.00;97412.23;110085;1248;60565;-69
2022/09/03 04:02:42;;;;;;;5.60;3.80;;;;;;;12.73;100.00;97413.08;110204;1248;60521;-69
2022/09/03 04:05:11;;;;;;;4.20;3.40;;;;;;;12.72;100.00;97412.65;110432;1247;72392;-69
2022/09/03 04:07:42;;;;;;;4.30;3.30;;;;;;;12.71;100.00;97408.84;110255;1249;69242;-69
2022/09/03 04:10:14;;;;;;;4.90;3.80;;;;;;;12.73;100.00;97405.91;110153;1250;68745;-69
2022/09/03 04:12:43;;;;;;;4.80;3.30;;;;;;;12.74;100.00;97409.63;109986;1248;60486;-69
2022/09/03 04:15:12;;;;;;;6.30;4.30;;;;;;;12.76;100.00;97408.80;110090;1249;60494;-68
2022/09/03 04:17:42;;;;;;;4.90;4.40;;;;;;;12.77;100.00;97409.97;110169;1249;71429;-68
2022/09/03 04:20:12;;;;;;;5.50;4.10;;;;;;;12.78;100.00;97411.64;110310;1249;68719;-70
2022/09/03 04:22:41;;;;;;;;;;;;;;;12.77;100.00;97412.44;110306;1247;68844;-68
2022/09/03 04:25:11;;;;;;;5.70;4.10;;;;;;;12.74;100.00;97415.59;110184;1247;60523;-71
2022/09/03 04:27:40;;;;;;;5.20;3.90;;;;;;;12.74;100.00;97412.13;110227;1250;60520;-69
2022/09/03 04:30:10;;;;;;;6.00;4.00;;;;;;;12.76;100.00;97418.81;109989;1249;71419;-70
2022/09/03 04:32:52;;;;;;;5.50;4.00;;;;;;;12.77;100.00;97418.21;110349;1247;68633;-71
2022/09/03 04:35:32;;;;;;;7.30;5.00;;;;;;;12.82;100.00;97411.83;110283;1250;67694;-70
2022/09/03 04:38:05;;;;;;;5.10;4.40;;;;;;;12.85;100.00;97413.84;110204;1248;60560;-71
2022/09/03 04:40:36;;;;;;;5.60;4.60;;;;;;;12.85;100.00;97412.11;110221;1249;60437;-71
2022/09/03 04:43:06;;;;;;;5.90;4.40;;;;;;;12.86;100.00;97417.13;110728;1247;71478;-69
2022/09/03 04:45:35;;;;;;;5.00;3.80;;;;;;;12.86;100.00;97418.83;110409;1248;67639;-70
2022/09/03 04:48:09;;;;;;;5.90;4.10;;;;;;;12.88;100.00;97420.78;110323;1247;68643;-70
2022/09/03 04:50:38;;;;;;;4.20;3.70;;;;;;;12.91;100.00;97416.51;110261;1247;60434;-70
2022/09/03 04:53:07;;;;;;;6.40;4.60;;;;;;;12.94;100.00;97418.73;110120;1250;60502;-69
2022/09/03 04:55:38;;;;;;;6.30;4.50;;;;;;;12.95;100.00;97421.98;109017;1248;1782264;-69
2022/09/03 04:58:07;;;;;;;6.00;4.70;;;;;;;12.96;100.00;97422.54;110193;1247;69446;-70
2022/09/03 05:00:36;;;;;;;6.10;4.30;;;;;;;12.97;100.00;97422.27;110135;1247;69210;-70
2022/09/03 05:03:06;;;;;;;5.20;4.50;;;;;;;12.98;100.00;97424.98;110324;1247;60498;-69
2022/09/03 05:05:34;;;;;;;5.70;4.50;;;;;;;12.99;100.00;97422.31;110362;1247;60458;-69
2022/09/03 05:08:04;;;;;;;4.80;3.60;;;;;;;12.99;100.00;97419.18;110296;1248;72175;-69
2022/09/03 05:10:33;;;;;;;5.90;4.50;;;;;;;13.01;100.00;97418.33;110236;1247;68687;-69
2022/09/03 05:13:05;;;;;;;5.10;3.80;;;;;;;13.02;100.00;97421.17;110044;1247;69544;-71
2022/09/03 05:15:34;;;;;;;4.80;3.80;;;;;;;13.04;100.00;97420.39;110175;1249;60592;-69
2022/09/03 05:18:03;;;;;;;3.50;3.00;;;;;;;13.06;100.00;97424.41;110261;1248;60447;-69
2022/09/03 05:20:32;;;;;;;5.00;3.80;;;;;;;13.06;100.00;97427.90;109967;1251;71645;-69
2022/09/03 05:23:05;;;;;;;4.90;4.10;;;;;;;13.09;100.00;97425.67;110464;1247;69207;-68
2022/09/03 05:25:33;;;;;;;5.60;4.40;;;;;;;13.09;100.00;97426.06;110311;1248;68646;-69
2022/09/03 05:28:02;;;;;;;6.90;5.10;;;;;;;13.10;100.00;97425.13;109978;1250;60504;-69
2022/09/03 05:30:31;;;;;;;5.80;4.30;;;;;;;13.08;100.00;97427.86;110254;1247;59904;-69
2022/09/03 05:33:03;;;;;;;;;;;;;;;13.11;100.00;97429.03;110425;1248;72179;-68
2022/09/03 05:35:32;;;;;;;4.80;3.90;;;;;;;13.15;100.00;97434.32;110450;1247;68840;-68
2022/09/03 05:38:02;;;;;;;4.00;3.60;;;;;;;13.19;100.00;97435.67;110191;1247;69355;-67
2022/09/03 05:40:32;;;;;;;5.20;4.20;;;;;;;13.22;100.00;97437.88;110348;1246;60593;-68
2022/09/03 05:43:01;;;;;;;4.40;3.60;;;;;;;13.22;100.00;97438.42;110433;1247;60484;-69
2022/09/03 05:45:35;;;;;;;5.00;3.50;;;;;;;13.24;100.00;97440.58;110315;1247;71516;-70
2022/09/03 05:48:05;;;;;;;4.50;3.70;;;;;;;13.26;100.00;97443.73;110863;1249;69667;-70
2022/09/03 05:50:34;;;;;;;6.30;3.70;;;;;;;13.28;100.00;97440.77;110612;1249;69055;-69
2022/09/03 05:53:03;;;;;;;6.40;4.20;;;;;;;13.31;100.00;97446.48;109995;1250;60549;-69
2022/09/03 05:55:32;;;;;;;4.10;3.60;;;;;;;13.31;99.98;97444.92;110372;1247;60495;-70
2022/09/03 05:58:01;;;;;;;4.20;3.20;;;;;;;13.31;99.62;97446.85;109937;1250;72415;-69
2022/09/03 06:00:30;;;;;;;4.30;3.80;;;;;;;13.29;99.46;97446.83;110172;1248;68630;-70
2022/09/03 06:03:00;;;;;;;3.40;2.80;;;;;;;13.28;100.00;97449.58;110314;1247;68740;-69
2022/09/03 06:05:29;;;;;;;4.40;3.50;;;;;;;13.28;99.63;97448.81;110193;1248;60547;-67
2022/09/03 06:07:58;;;;;;;5.30;4.20;;;;;;;13.28;99.94;97452.38;110473;1247;60495;-69
2022/09/03 06:10:28;;;;;;;4.90;4.20;;;;;;;13.25;99.97;97453.92;110286;1248;72620;-69
2022/09/03 06:13:09;;;;;;;5.80;3.50;;;;;;;13.23;100.00;97454.25;110234;1247;68495;-68
2022/09/03 06:15:38;;;;;;;;;;;;;;;13.25;99.75;97456.91;110283;1247;68644;-69
2022/09/03 06:18:07;;;;;;;4.50;3.40;;;;;;;13.28;99.54;97458.88;110154;1250;60547;-68
2022/09/03 06:20:36;;;;;;;4.30;3.20;;;;;;;13.29;98.87;97458.77;110453;1247;60506;-69
2022/09/03 06:23:05;;;;;;;4.20;3.20;;;;;;;13.28;98.53;97457.96;110520;1248;71564;-69
2022/09/03 06:25:35;;;;;;;4.30;3.40;;;;;;;13.27;99.20;97461.54;110378;1247;69283;-69
2022/09/03 06:28:07;;;;;;;4.90;3.90;;;;;;;13.28;99.17;97459.88;110386;1248;69494;-69
2022/09/03 06:30:36;;;;;;;4.30;3.50;;;;;;;13.29;99.73;97462.55;110381;1248;60498;-69
2022/09/03 06:33:05;;;;;;;3.70;3.30;;;;;;;13.32;99.75;97459.73;110405;1250;60510;-69
2022/09/03 06:35:33;;;;;;;5.10;3.10;;;;;;;13.34;99.25;97461.42;110299;1247;72299;-69
2022/09/03 06:38:11;;;;;;;4.70;3.60;;;;;;;13.36;99.71;97460.98;110247;1247;69306;-69
2022/09/03 06:40:40;;;;;;;;;;;;;;;13.38;99.15;97462.17;110210;1247;69435;-70
2022/09/03 06:43:10;;;;;;;74.40;39.70;;;;;;;13.41;99.39;97464.04;110203;1249;60490;-69
2022/09/03 06:45:38;;;;;;;24.20;13.90;;;;;;;13.46;100.00;97462.75;110137;1248;60443;-69
2022/09/03 06:48:08;;;;;;;53.70;32.20;;;;;;;13.48;99.90;97464.64;110498;1248;72578;-69
2022/09/03 06:50:36;;;;;;;31.10;18.30;;;;;;;13.51;100.00;97467.88;110229;1247;68673;-69
2022/09/03 06:53:05;;;;;;;11.80;7.90;;;;;;;13.53;100.00;97470.70;110341;1247;68493;-70
2022/09/03 06:55:38;;;;;;;6.40;4.20;;;;;;;13.55;99.94;97471.25;110222;1247;60472;-70
2022/09/03 06:58:07;;;;;;;4.80;3.30;;;;;;;13.56;99.51;97474.30;110627;1249;60933;-70
2022/09/03 07:00:36;;;;;;;4.00;3.10;;;;;;;13.57;99.25;97476.00;110347;1248;72505;-67
2022/09/03 07:03:05;;;;;;;5.10;2.90;;;;;;;13.56;99.20;97476.95;110514;1247;69417;-67
2022/09/03 07:05:34;;;;;;;3.50;3.10;;;;;;;13.53;99.34;97479.98;110258;1247;68758;-69
2022/09/03 07:08:03;;;;;;;4.20;2.80;;;;;;;13.55;99.06;97486.50;110235;1247;60550;-68
2022/09/03 07:10:36;;;;;;;3.40;2.90;;;;;;;13.56;98.86;97483.91;110262;1247;60434;-68
2022/09/03 07:13:07;;;;;;;4.40;3.40;;;;;;;13.55;98.97;97488.55;110212;1247;73140;-67
2022/09/03 07:15:36;;;;;;;3.60;2.80;;;;;;;13.56;99.14;97487.95;110249;1248;69266;-68
2022/09/03 07:18:05;;;;;;;3.80;3.20;;;;;;;13.59;98.91;97489.29;110244;1247;68948;-68
2022/09/03 07:20:35;;;;;;;4.00;3.20;;;;;;;13.59;98.63;97486.66;110351;1247;60487;-70
2022/09/03 07:23:03;;;;;;;4.20;3.10;;;;;;;13.62;98.45;97488.70;110273;1248;60487;-70
2022/09/03 07:25:32;;;;;;;3.70;2.60;;;;;;;13.65;98.35;97483.21;110228;1247;72393;-68
2022/09/03 07:28:05;;;;;;;3.20;2.30;;;;;;;13.68;98.18;97486.64;110131;1249;69682;-68
2022/09/03 07:30:34;;;;;;;3.80;2.50;;;;;;;13.70;98.05;97489.03;110123;1247;68884;-68
2022/09/03 07:33:06;;;;;;;2.80;2.20;;;;;;;13.71;98.57;97488.48;110338;1248;60570;-68
2022/09/03 07:35:36;;;;;;;3.20;2.40;;;;;;;13.74;98.57;97492.38;110284;1247;60482;-69
2022/09/03 07:38:05;;;;;;;3.00;2.60;;;;;;;13.77;98.96;97492.83;110146;1250;71580;-69
2022/09/03 07:40:33;;;;;;;2.80;2.10;;;;;;;13.80;98.72;97494.59;110155;1247;69473;-70
2022/09/03 07:43:03;;;;;;;2.70;2.10;;;;;;;13.84;98.54;97500.34;110101;1249;68665;-68
2022/09/03 07:45:32;;;;;;;2.50;2.20;;;;;;;13.84;98.06;97499.13;110293;1247;60913;-69
2022/09/03 07:48:01;;;;;;;2.90;2.60;;;;;;;13.86;98.28;97503.14;110604;1247;60482;-69
2022/09/03 07:50:36;;;;;;;3.60;2.20;;;;;;;13.84;97.67;97504.69;110487;1247;71744;-68
2022/09/03 07:53:05;;;;;;;2.80;2.40;;;;;;;13.83;97.84;97506.90;110214;1247;69423;-71
2022/09/03 07:55:34;;;;;;;2.70;2.30;;;;;;;13.85;98.08;97509.05;110272;1247;69431;-69
2022/09/03 07:58:03;;;;;;;2.90;2.40;;;;;;;13.84;97.90;97512.79;110476;1247;60515;-68
2022/09/03 08:00:32;;;;;;;3.20;2.30;;;;;;;13.86;97.59;97516.60;110407;1247;60443;-69
2022/09/03 08:03:07;;;;;;;2.20;1.70;;;;;;;13.87;97.80;97521.27;110740;1247;71666;-68
2022/09/03 08:05:36;;;;;;;3.10;2.30;;;;;;;13.88;97.57;97522.61;110539;1247;69622;-68
2022/09/03 08:08:06;;;;;;;2.70;2.30;;;;;;;13.85;97.48;97527.06;110332;1247;68584;-68
2022/09/03 08:10:37;;;;;;;2.20;1.90;;;;;;;13.80;97.24;97528.33;110449;1247;60463;-68
2022/09/03 08:13:06;;;;;;;2.80;2.60;;;;;;;13.79;97.39;97526.20;110041;1251;60545;-69
2022/09/03 08:15:39;;;;;;;2.70;2.00;;;;;;;13.78;97.38;97519.12;110117;1250;72163;-69
2022/09/03 08:18:11;;;;;;;2.70;2.20;;;;;;;13.80;97.56;97523.33;110058;1250;68507;-68
2022/09/03 08:20:40;;;;;;;3.50;1.90;;;;;;;13.80;97.84;97524.82;110498;1249;68565;-69
2022/09/03 08:23:09;;;;;;;3.00;2.70;;;;;;;13.80;98.24;97524.33;109990;1250;60514;-67
2022/09/03 08:25:38;;;;;;;2.60;2.00;;;;;;;13.79;98.35;97522.83;109756;1250;60487;-67
2022/09/03 08:28:07;;;;;;;2.40;1.80;;;;;;;13.80;98.20;97521.37;110179;1247;72418;-68
2022/09/03 08:30:36;;;;;;;3.40;2.90;;;;;;;13.80;98.27;97522.44;110087;1250;68722;-68
2022/09/03 08:33:07;;;;;;;2.90;2.40;;;;;;;13.81;98.46;97524.08;110419;1247;67669;-68
2022/09/03 08:35:38;;;;;;;;;;;;;;;13.84;98.92;97523.30;110216;1248;60557;-69
2022/09/03 08:38:07;;;;;;;3.40;2.90;;;;;;;13.86;99.12;97527.70;110073;1250;60426;-68
2022/09/03 08:40:38;;;;;;;3.50;2.30;;;;;;;13.85;99.92;97526.67;110147;1249;72488;-69
2022/09/03 08:43:17;;;;;;;2.30;1.70;;;;;;;13.94;99.94;97527.89;110070;1247;68904;-68
2022/09/03 08:45:48;;;;;;;2.10;1.80;;;;;;;14.02;99.41;97526.33;110325;1248;69516;-68
2022/09/03 08:48:20;;;;;;;2.00;1.60;;;;;;;14.10;98.90;97527.35;110084;1249;60961;-69
2022/09/03 08:50:58;;;;;;;2.30;1.50;;;;;;;14.15;98.45;97530.45;110231;1247;60475;-68
2022/09/03 08:53:34;;;;;;;1.50;1.30;;;;;;;14.17;97.80;97526.91;109873;1248;73667;-68
2022/09/03 08:56:09;;;;;;;1.90;1.30;;;;;;;14.21;97.81;97530.08;110425;1247;70255;-67
2022/09/03 08:58:42;;;;;;;2.00;1.30;;;;;;;14.24;97.55;97528.83;110464;1247;68446;-68
2022/09/03 09:01:24;;;;;;;1.50;1.40;;;;;;;14.27;97.23;97531.19;110007;1247;60669;-70
2022/09/03 09:04:11;;;;;;;1.30;1.10;;;;;;;14.29;97.13;97530.70;110619;1249;60489;-69
2022/09/03 09:06:46;;;;;;;1.90;1.40;;;;;;;14.26;96.64;97533.67;110274;1249;71663;-71
2022/09/03 09:09:32;;;;;;;1.70;1.40;;;;;;;14.24;96.65;97535.64;110759;1247;67645;-69
2022/09/03 09:12:20;;;;;;;1.30;1.20;;;;;;;14.17;96.54;97534.30;110477;1247;68675;-69
2022/09/03 09:15:13;;;;;;;1.40;1.30;;;;;;;14.16;96.78;97534.02;110453;1249;60488;-69
2022/09/03 09:17:59;;;;;;;1.50;1.40;;;;;;;14.18;96.86;97534.73;110144;1249;60480;-67
2022/09/03 09:20:34;;;;;;;2.10;1.40;;;;;;;14.19;96.93;97540.11;110430;1247;72365;-68
2022/09/03 09:23:11;;;;;;;1.90;1.60;;;;;;;14.24;97.34;97539.64;110548;1247;68698;-68
2022/09/03 09:25:50;;;;;;;2.10;1.60;;;;;;;14.29;97.20;97539.11;110177;1247;70733;-67
2022/09/03 09:28:22;;;;;;;2.30;1.50;;;;;;;14.32;97.23;97540.04;110121;1248;60497;-68
2022/09/03 09:30:55;;;;;;;1.30;1.20;;;;;;;14.34;97.54;97537.05;109848;1249;60535;-68
2022/09/03 09:33:24;;;;;;;2.10;1.50;;;;;;;14.40;97.32;97540.23;110485;1247;71710;-68
2022/09/03 09:35:54;;;;;;;6.80;6.10;;;;;;;14.46;97.25;97541.69;110085;1250;69251;-68
2022/09/03 09:38:32;;;;;;;2.60;1.70;;;;;;;14.51;97.27;97543.02;110300;1248;69262;-66
2022/09/03 09:41:10;;;;;;;2.10;1.30;;;;;;;14.56;96.96;97545.35;109913;1249;60512;-67
2022/09/03 09:43:39;;;;;;;2.30;1.60;;;;;;;14.56;96.31;97542.72;109807;1250;60885;-67
2022/09/03 09:46:12;;;;;;;;;;;;;;;14.57;96.40;97543.52;110320;1249;71462;-69
2022/09/03 09:49:07;;;;;;;2.20;1.30;;;;;;;14.57;96.58;97545.41;110056;1249;69806;-68
2022/09/03 09:51:41;;;;;;;8.80;7.60;;;;;;;14.59;96.57;97545.27;109656;1248;70023;-70
2022/09/03 09:54:20;;;;;;;3.80;3.30;;;;;;;14.60;96.54;97549.20;109895;1250;60498;-69
2022/09/03 09:57:02;;;;;;;4.10;3.60;;;;;;;14.66;96.66;97551.34;110197;1248;60962;-68
2022/09/03 09:59:34;;;;;;;2.80;2.50;;;;;;;14.70;96.32;97553.05;109849;1250;73498;-69
2022/09/03 10:02:27;;;;;;;2.00;1.10;;;;;;;14.69;96.43;97552.60;110072;1248;68679;-70
2022/09/03 10:05:12;;;;;;;0.80;0.80;;;;;;;14.71;96.03;97553.71;109919;1251;69349;-69
2022/09/03 10:07:59;;;;;;;3.40;3.00;;;;;;;14.67;96.40;97555.58;109839;1250;60570;-69
2022/09/03 10:10:43;;;;;;;4.10;1.90;;;;;;;14.66;96.12;97555.18;109812;1250;60513;-68
2022/09/03 10:13:33;;;;;;;1.50;1.30;;;;;;;14.66;96.06;97555.05;109945;1250;71552;-69
2022/09/03 10:16:14;;;;;;;1.30;1.10;;;;;;;14.65;96.12;97555.45;109990;1250;69296;-68
2022/09/03 10:19:19;;;;;;;1.00;0.80;;;;;;;14.66;95.96;97554.11;109810;1250;68525;-67
2022/09/03 10:22:17;;;;;;;1.60;1.10;;;;;;;14.69;95.95;97553.50;109996;1250;60546;-69
2022/09/03 10:25:08;;;;;;;1.40;1.20;;;;;;;14.70;95.90;97555.56;110236;1248;60563;-69
2022/09/03 10:27:38;;;;;;;1.40;1.20;;;;;;;14.73;95.83;97555.27;110387;1247;72363;-69
2022/09/03 10:30:14;;;;;;;1.60;1.00;;;;;;;14.76;95.82;97557.77;110343;1247;69365;-69
2022/09/03 10:33:06;;;;;;;16.10;14.70;;;;;;;14.80;95.57;97557.86;110380;1247;68481;-69
2022/09/03 10:35:45;;;;;;;3.30;2.80;;;;;;;14.81;95.86;97556.20;110156;1247;60481;-69
2022/09/03 10:38:32;;;;;;;1.60;1.30;;;;;;;14.86;95.57;97557.15;109898;1250;60426;-69
2022/09/03 10:41:33;;;;;;;2.90;1.70;;;;;;;14.94;95.43;97556.93;109837;1249;72377;-69
2022/09/03 10:44:39;;;;;;;2.20;1.80;;;;;;;14.99;96.50;97557.52;110406;1248;67976;-69
2022/09/03 10:47:24;;;;;;;2.10;1.30;;;;;;;15.09;95.70;97556.13;110146;1250;68831;-68
2022/09/03 10:50:29;;;;;;;1.20;1.10;;;;;;;15.13;95.21;97555.30;110257;1250;60459;-70
2022/09/03 10:53:17;;;;;;;1.40;1.20;;;;;;;15.13;95.08;97554.77;110156;1247;60523;-68
2022/09/03 10:55:57;;;;;;;1.90;1.40;;;;;;;15.14;95.32;97552.36;110158;1247;72322;-69
2022/09/03 10:58:54;;;;;;;1.20;1.00;;;;;;;15.17;95.82;97547.90;110235;1247;68718;-68
2022/09/03 11:01:41;;;;;;;1.10;1.00;;;;;;;15.22;95.29;97547.45;110220;1248;68864;-68
2022/09/03 11:04:37;;;;;;;1.60;1.10;;;;;;;15.28;95.00;97545.16;110135;1250;60558;-68
2022/09/03 11:07:12;;;;;;;1.60;1.00;;;;;;;15.33;94.55;97543.34;109786;1250;60499;-67
2022/09/03 11:09:51;;;;;;;1.30;1.00;;;;;;;15.30;94.09;97545.28;109787;1250;72448;-68
2022/09/03 11:12:29;;;;;;;1.10;1.00;;;;;;;15.32;93.72;97547.77;109701;1250;68740;-68
2022/09/03 12:25:48;;;;;;;1.00;0.80;;;;;;;15.64;92.16;97554.11;106934;1283;609501;-69
2022/09/03 12:28:24;;;;;;;1.20;0.90;;;;;;;15.86;91.90;97553.83;108169;1260;1594161;-68
2022/09/03 12:30:52;;;;;;;1.80;1.10;;;;;;;15.95;91.88;97556.42;109470;1259;57639;-68
2022/09/03 12:33:27;;;;;;;1.90;1.10;;;;;;;16.06;91.75;97555.58;109296;1260;68470;-68
2022/09/03 12:36:00;;;;;;;1.70;1.00;;;;;;;16.14;92.47;97559.97;109889;1260;69270;-69
2022/09/03 12:38:34;;;;;;;1.90;1.30;;;;;;;16.20;91.00;97559.79;109561;1259;69402;-69
2022/09/03 12:41:30;;;;;;;2.30;1.30;;;;;;;16.26;89.63;97561.92;109377;1260;58106;-70
2022/09/03 12:44:03;;;;;;;1.80;1.40;;;;;;;16.27;88.34;97559.82;110325;1247;57685;-69
2022/09/03 12:46:35;;;;;;;1.60;1.30;;;;;;;16.17;86.73;97556.17;110444;1247;69671;-68
2022/09/03 12:49:06;;;;;;;2.80;1.40;;;;;;;16.11;87.59;97549.53;110125;1247;68630;-68
2022/09/03 12:52:07;;;;;;;2.10;1.40;;;;;;;16.17;86.96;97549.70;110240;1247;68707;-68
2022/09/03 12:54:47;;;;;;;1.50;1.40;;;;;;;16.19;86.19;97546.66;110400;1248;58094;-68
2022/09/03 12:57:27;;;;;;;1.70;1.40;;;;;;;16.27;87.11;97548.33;110638;1250;58133;-68
2022/09/03 13:00:10;;;;;;;1.40;1.10;;;;;;;16.32;86.53;97547.50;110287;1249;69226;-69
2022/09/03 13:03:06;;;;;;;2.00;1.40;;;;;;;16.43;86.94;97543.48;110527;1247;69454;-69
2022/09/03 13:06:00;;;;;;;1.40;1.20;;;;;;;16.59;87.35;97542.17;110713;1247;68729;-69
2022/09/03 13:08:38;;;;;;;2.00;1.30;;;;;;;16.71;87.19;97541.58;110363;1247;58073;-68
2022/09/03 13:11:07;;;;;;;2.60;1.60;;;;;;;16.77;86.79;97545.95;110381;1248;58147;-68
2022/09/03 13:13:38;;;;;;;1.70;1.30;;;;;;;16.72;84.50;97544.99;110551;1251;69286;-69
2022/09/03 13:16:40;;;;;;;1.60;1.30;;;;;;;16.76;85.78;97548.88;110435;1249;68565;-68
2022/09/03 13:19:39;;;;;;;2.10;1.20;;;;;;;16.78;85.47;97550.73;110370;1248;69441;-71